sensor_id;sensor_type;location;lat;lon;timestamp;temperature;humidity
38090;DHT22;23904;52.322;10.232;2023-09-08T00:01:54;20.40;95.00
38090;DHT22;23904;52.322;10.232;2023-09-08T00:04:20;20.30;95.30
38090;DHT22;23904;52.322;10.232;2023-09-08T00:06:46;20.40;95.20
38090;DHT22;23904;52.322;10.232;2023-09-08T00:09:12;20.30;95.10
38090;DHT22;23904;52.322;10.232;2023-09-08T00:11:37;20.30;95.50
38090;DHT22;23904;52.322;10.232;2023-09-08T00:14:03;20.20;95.40
38090;DHT22;23904;52.322;10.232;2023-09-08T00:16:29;20.30;95.50
38090;DHT22;23904;52.322;10.232;2023-09-08T00:18:55;20.30;95.40
38090;DHT22;23904;52.322;10.232;2023-09-08T00:21:22;20.30;95.40
38090;DHT22;23904;52.322;10.232;2023-09-08T00:23:48;20.30;95.40
38090;DHT22;23904;52.322;10.232;2023-09-08T00:26:13;20.30;95.50
38090;DHT22;23904;52.322;10.232;2023-09-08T00:28:39;20.40;95.50
38090;DHT22;23904;52.322;10.232;2023-09-08T00:31:04;20.30;95.40
38090;DHT22;23904;52.322;10.232;2023-09-08T00:33:30;20.40;95.50
38090;DHT22;23904;52.322;10.232;2023-09-08T00:35:55;20.40;95.60
38090;DHT22;23904;52.322;10.232;2023-09-08T00:38:23;20.40;95.50
38090;DHT22;23904;52.322;10.232;2023-09-08T00:40:48;20.20;95.80
38090;DHT22;23904;52.322;10.232;2023-09-08T00:43:14;20.20;95.80
38090;DHT22;23904;52.322;10.232;2023-09-08T00:45:42;20.20;96.00
38090;DHT22;23904;52.322;10.232;2023-09-08T00:48:08;20.20;96.20
38090;DHT22;23904;52.322;10.232;2023-09-08T00:50:36;20.20;96.30
38090;DHT22;23904;52.322;10.232;2023-09-08T00:53:03;20.10;96.30
38090;DHT22;23904;52.322;10.232;2023-09-08T00:55:30;20.10;96.50
38090;DHT22;23904;52.322;10.232;2023-09-08T00:57:57;20.00;96.70
38090;DHT22;23904;52.322;10.232;2023-09-08T01:00:26;20.00;96.80
38090;DHT22;23904;52.322;10.232;2023-09-08T01:02:52;19.90;96.90
38090;DHT22;23904;52.322;10.232;2023-09-08T01:05:18;19.90;96.90
38090;DHT22;23904;52.322;10.232;2023-09-08T01:07:45;19.90;97.00
38090;DHT22;23904;52.322;10.232;2023-09-08T01:10:13;19.80;97.30
38090;DHT22;23904;52.322;10.232;2023-09-08T01:12:39;19.80;97.30
38090;DHT22;23904;52.322;10.232;2023-09-08T01:15:05;19.70;97.30
38090;DHT22;23904;52.322;10.232;2023-09-08T01:17:31;19.70;97.70
38090;DHT22;23904;52.322;10.232;2023-09-08T01:20:01;19.60;97.80
38090;DHT22;23904;52.322;10.232;2023-09-08T01:25:21;19.60;98.20
38090;DHT22;23904;52.322;10.232;2023-09-08T01:27:50;19.60;98.20
38090;DHT22;23904;52.322;10.232;2023-09-08T01:30:17;19.60;98.40
38090;DHT22;23904;52.322;10.232;2023-09-08T01:32:44;19.50;98.30
38090;DHT22;23904;52.322;10.232;2023-09-08T01:35:11;19.50;98.40
38090;DHT22;23904;52.322;10.232;2023-09-08T01:37:40;19.40;98.70
38090;DHT22;23904;52.322;10.232;2023-09-08T01:40:13;19.30;99.30
38090;DHT22;23904;52.322;10.232;2023-09-08T01:42:40;19.30;99.30
38090;DHT22;23904;52.322;10.232;2023-09-08T01:45:06;19.30;99.50
38090;DHT22;23904;52.322;10.232;2023-09-08T01:47:33;19.20;99.60
38090;DHT22;23904;52.322;10.232;2023-09-08T01:49:58;19.20;99.80
38090;DHT22;23904;52.322;10.232;2023-09-08T01:52:24;19.10;99.90
38090;DHT22;23904;52.322;10.232;2023-09-08T01:54:50;19.10;99.90
38090;DHT22;23904;52.322;10.232;2023-09-08T01:57:17;19.10;99.90
38090;DHT22;23904;52.322;10.232;2023-09-08T01:59:42;19.10;99.90
38090;DHT22;23904;52.322;10.232;2023-09-08T02:02:10;19.10;99.90
38090;DHT22;23904;52.322;10.232;2023-09-08T02:04:36;19.00;99.90
38090;DHT22;23904;52.322;10.232;2023-09-08T02:07:02;18.90;99.90
38090;DHT22;23904;52.322;10.232;2023-09-08T02:09:35;18.80;99.90
38090;DHT22;23904;52.322;10.232;2023-09-08T02:12:03;18.90;99.90
38090;DHT22;23904;52.322;10.232;2023-09-08T02:14:29;18.90;99.90
38090;DHT22;23904;52.322;10.232;2023-09-08T02:16:56;18.90;99.90
38090;DHT22;23904;52.322;10.232;2023-09-08T02:19:22;18.90;99.90
38090;DHT22;23904;52.322;10.232;2023-09-08T02:21:48;18.80;99.90
38090;DHT22;23904;52.322;10.232;2023-09-08T02:24:13;18.80;99.90
38090;DHT22;23904;52.322;10.232;2023-09-08T02:26:39;18.70;99.90
38090;DHT22;23904;52.322;10.232;2023-09-08T02:29:05;18.70;99.90
38090;DHT22;23904;52.322;10.232;2023-09-08T02:31:31;18.60;99.90
38090;DHT22;23904;52.322;10.232;2023-09-08T02:33:56;18.70;99.90
38090;DHT22;23904;52.322;10.232;2023-09-08T02:36:22;18.70;99.90
38090;DHT22;23904;52.322;10.232;2023-09-08T02:38:55;18.70;99.90
38090;DHT22;23904;52.322;10.232;2023-09-08T02:41:21;18.60;99.90
38090;DHT22;23904;52.322;10.232;2023-09-08T02:43:47;18.60;99.90
38090;DHT22;23904;52.322;10.232;2023-09-08T02:46:13;18.50;99.90
38090;DHT22;23904;52.322;10.232;2023-09-08T02:48:39;18.50;99.90
38090;DHT22;23904;52.322;10.232;2023-09-08T02:51:05;18.60;99.90
38090;DHT22;23904;52.322;10.232;2023-09-08T02:53:31;18.60;99.90
38090;DHT22;23904;52.322;10.232;2023-09-08T02:55:57;18.60;99.90
38090;DHT22;23904;52.322;10.232;2023-09-08T02:58:23;18.60;99.90
38090;DHT22;23904;52.322;10.232;2023-09-08T03:00:50;18.60;99.90
38090;DHT22;23904;52.322;10.232;2023-09-08T03:03:20;18.60;99.90
38090;DHT22;23904;52.322;10.232;2023-09-08T03:05:46;18.60;99.90
38090;DHT22;23904;52.322;10.232;2023-09-08T03:08:11;18.60;99.90
38090;DHT22;23904;52.322;10.232;2023-09-08T03:10:37;18.60;99.90
38090;DHT22;23904;52.322;10.232;2023-09-08T03:13:04;18.60;99.90
38090;DHT22;23904;52.322;10.232;2023-09-08T03:15:30;18.50;99.90
38090;DHT22;23904;52.322;10.232;2023-09-08T03:17:56;18.50;99.90
38090;DHT22;23904;52.322;10.232;2023-09-08T03:20:24;18.50;99.90
38090;DHT22;23904;52.322;10.232;2023-09-08T03:22:51;18.50;99.90
38090;DHT22;23904;52.322;10.232;2023-09-08T03:25:17;18.50;99.90
38090;DHT22;23904;52.322;10.232;2023-09-08T03:27:43;18.50;99.90
38090;DHT22;23904;52.322;10.232;2023-09-08T03:30:09;18.40;99.90
38090;DHT22;23904;52.322;10.232;2023-09-08T03:32:35;18.40;99.90
38090;DHT22;23904;52.322;10.232;2023-09-08T03:35:01;18.40;99.90
38090;DHT22;23904;52.322;10.232;2023-09-08T03:37:28;18.30;99.90
38090;DHT22;23904;52.322;10.232;2023-09-08T03:39:54;18.30;99.90
38090;DHT22;23904;52.322;10.232;2023-09-08T03:42:19;18.20;99.90
38090;DHT22;23904;52.322;10.232;2023-09-08T03:44:45;18.20;99.90
38090;DHT22;23904;52.322;10.232;2023-09-08T03:47:10;18.20;99.90
38090;DHT22;23904;52.322;10.232;2023-09-08T03:49:36;18.20;99.90
38090;DHT22;23904;52.322;10.232;2023-09-08T03:52:01;18.20;99.90
38090;DHT22;23904;52.322;10.232;2023-09-08T03:54:27;18.10;99.90
38090;DHT22;23904;52.322;10.232;2023-09-08T03:56:53;18.10;99.90
38090;DHT22;23904;52.322;10.232;2023-09-08T03:59:18;18.10;99.90
38090;DHT22;23904;52.322;10.232;2023-09-08T04:01:44;18.00;99.90
38090;DHT22;23904;52.322;10.232;2023-09-08T04:04:10;18.00;99.90
38090;DHT22;23904;52.322;10.232;2023-09-08T04:06:35;17.90;99.90
38090;DHT22;23904;52.322;10.232;2023-09-08T04:09:01;17.90;99.90
38090;DHT22;23904;52.322;10.232;2023-09-08T04:11:26;17.80;99.90
38090;DHT22;23904;52.322;10.232;2023-09-08T04:13:52;17.80;99.90
38090;DHT22;23904;52.322;10.232;2023-09-08T04:16:18;17.70;99.90
38090;DHT22;23904;52.322;10.232;2023-09-08T04:18:43;17.70;99.90
38090;DHT22;23904;52.322;10.232;2023-09-08T04:21:10;17.70;99.90
38090;DHT22;23904;52.322;10.232;2023-09-08T04:23:35;17.70;99.90
38090;DHT22;23904;52.322;10.232;2023-09-08T04:26:01;17.70;99.90
38090;DHT22;23904;52.322;10.232;2023-09-08T04:28:26;17.70;99.90
38090;DHT22;23904;52.322;10.232;2023-09-08T04:30:52;17.70;99.90
38090;DHT22;23904;52.322;10.232;2023-09-08T04:33:17;17.70;99.90
38090;DHT22;23904;52.322;10.232;2023-09-08T04:35:43;17.60;99.90
38090;DHT22;23904;52.322;10.232;2023-09-08T04:38:09;17.60;99.90
38090;DHT22;23904;52.322;10.232;2023-09-08T04:40:34;17.60;99.90
38090;DHT22;23904;52.322;10.232;2023-09-08T04:43:00;17.60;99.90
38090;DHT22;23904;52.322;10.232;2023-09-08T04:45:26;17.60;99.90
38090;DHT22;23904;52.322;10.232;2023-09-08T04:47:51;17.60;99.90
38090;DHT22;23904;52.322;10.232;2023-09-08T04:50:17;17.50;99.90
38090;DHT22;23904;52.322;10.232;2023-09-08T04:52:42;17.50;99.90
38090;DHT22;23904;52.322;10.232;2023-09-08T04:55:09;17.50;99.90
38090;DHT22;23904;52.322;10.232;2023-09-08T04:57:35;17.40;99.90
38090;DHT22;23904;52.322;10.232;2023-09-08T05:00:01;17.40;99.90
38090;DHT22;23904;52.322;10.232;2023-09-08T05:02:27;17.40;99.90
38090;DHT22;23904;52.322;10.232;2023-09-08T05:04:53;17.40;99.90
38090;DHT22;23904;52.322;10.232;2023-09-08T05:07:18;17.30;99.90
38090;DHT22;23904;52.322;10.232;2023-09-08T05:09:44;17.40;99.90
38090;DHT22;23904;52.322;10.232;2023-09-08T05:12:10;17.40;99.90
38090;DHT22;23904;52.322;10.232;2023-09-08T05:14:35;17.40;99.90
38090;DHT22;23904;52.322;10.232;2023-09-08T05:17:01;17.40;99.90
38090;DHT22;23904;52.322;10.232;2023-09-08T05:19:26;17.50;99.90
38090;DHT22;23904;52.322;10.232;2023-09-08T05:21:54;17.50;99.90
38090;DHT22;23904;52.322;10.232;2023-09-08T05:24:20;17.60;99.90
38090;DHT22;23904;52.322;10.232;2023-09-08T05:26:46;17.60;99.90
38090;DHT22;23904;52.322;10.232;2023-09-08T05:29:12;17.60;99.90
38090;DHT22;23904;52.322;10.232;2023-09-08T05:31:38;17.60;99.90
38090;DHT22;23904;52.322;10.232;2023-09-08T05:34:04;17.70;99.90
38090;DHT22;23904;52.322;10.232;2023-09-08T05:36:31;17.70;99.90
38090;DHT22;23904;52.322;10.232;2023-09-08T05:38:59;17.70;99.90
38090;DHT22;23904;52.322;10.232;2023-09-08T05:41:24;17.80;99.90
38090;DHT22;23904;52.322;10.232;2023-09-08T05:43:50;17.80;99.90
38090;DHT22;23904;52.322;10.232;2023-09-08T05:46:15;17.80;99.90
38090;DHT22;23904;52.322;10.232;2023-09-08T05:48:41;17.80;99.90
38090;DHT22;23904;52.322;10.232;2023-09-08T05:51:07;17.80;99.90
38090;DHT22;23904;52.322;10.232;2023-09-08T05:53:33;17.90;99.90
38090;DHT22;23904;52.322;10.232;2023-09-08T05:56:01;17.90;99.90
38090;DHT22;23904;52.322;10.232;2023-09-08T05:58:26;17.80;99.90
38090;DHT22;23904;52.322;10.232;2023-09-08T06:00:53;17.90;99.90
38090;DHT22;23904;52.322;10.232;2023-09-08T06:03:19;17.90;99.90
38090;DHT22;23904;52.322;10.232;2023-09-08T06:05:45;17.90;99.90
38090;DHT22;23904;52.322;10.232;2023-09-08T06:08:10;17.90;99.90
38090;DHT22;23904;52.322;10.232;2023-09-08T06:10:37;17.90;99.90
38090;DHT22;23904;52.322;10.232;2023-09-08T06:13:03;17.90;99.90
38090;DHT22;23904;52.322;10.232;2023-09-08T06:15:28;17.90;99.90
38090;DHT22;23904;52.322;10.232;2023-09-08T06:17:54;17.90;99.90
38090;DHT22;23904;52.322;10.232;2023-09-08T06:20:20;18.00;99.90
38090;DHT22;23904;52.322;10.232;2023-09-08T06:22:46;18.00;99.90
38090;DHT22;23904;52.322;10.232;2023-09-08T06:25:12;18.00;99.90
38090;DHT22;23904;52.322;10.232;2023-09-08T06:27:38;18.00;99.90
38090;DHT22;23904;52.322;10.232;2023-09-08T06:30:04;18.00;99.90
38090;DHT22;23904;52.322;10.232;2023-09-08T06:32:30;18.00;99.90
38090;DHT22;23904;52.322;10.232;2023-09-08T06:34:56;18.10;99.90
38090;DHT22;23904;52.322;10.232;2023-09-08T06:37:21;18.20;99.90
38090;DHT22;23904;52.322;10.232;2023-09-08T06:39:47;18.20;99.90
38090;DHT22;23904;52.322;10.232;2023-09-08T06:42:12;18.30;99.90
38090;DHT22;23904;52.322;10.232;2023-09-08T06:44:38;18.40;99.90
38090;DHT22;23904;52.322;10.232;2023-09-08T06:47:04;18.50;99.90
38090;DHT22;23904;52.322;10.232;2023-09-08T06:49:32;18.60;99.90
38090;DHT22;23904;52.322;10.232;2023-09-08T06:51:58;18.80;99.90
38090;DHT22;23904;52.322;10.232;2023-09-08T06:54:23;18.80;99.90
38090;DHT22;23904;52.322;10.232;2023-09-08T06:56:49;18.90;99.90
38090;DHT22;23904;52.322;10.232;2023-09-08T06:59:15;19.00;99.90
38090;DHT22;23904;52.322;10.232;2023-09-08T07:01:40;19.10;99.90
38090;DHT22;23904;52.322;10.232;2023-09-08T07:04:06;19.20;99.90
38090;DHT22;23904;52.322;10.232;2023-09-08T07:06:31;19.20;99.90
38090;DHT22;23904;52.322;10.232;2023-09-08T07:08:57;19.30;99.90
38090;DHT22;23904;52.322;10.232;2023-09-08T07:11:23;19.30;99.90
38090;DHT22;23904;52.322;10.232;2023-09-08T07:13:48;19.40;99.90
38090;DHT22;23904;52.322;10.232;2023-09-08T07:16:14;19.40;99.90
38090;DHT22;23904;52.322;10.232;2023-09-08T07:18:39;19.40;99.90
38090;DHT22;23904;52.322;10.232;2023-09-08T07:21:05;19.40;99.90
38090;DHT22;23904;52.322;10.232;2023-09-08T07:23:31;19.50;99.90
38090;DHT22;23904;52.322;10.232;2023-09-08T07:25:57;19.60;99.90
38090;DHT22;23904;52.322;10.232;2023-09-08T07:28:22;19.70;99.90
38090;DHT22;23904;52.322;10.232;2023-09-08T07:30:48;19.80;99.90
38090;DHT22;23904;52.322;10.232;2023-09-08T07:33:13;19.80;99.90
38090;DHT22;23904;52.322;10.232;2023-09-08T07:35:40;20.00;99.90
38090;DHT22;23904;52.322;10.232;2023-09-08T07:38:06;20.00;99.90
38090;DHT22;23904;52.322;10.232;2023-09-08T07:40:33;20.10;99.90
38090;DHT22;23904;52.322;10.232;2023-09-08T07:42:59;20.20;99.90
38090;DHT22;23904;52.322;10.232;2023-09-08T07:45:25;20.30;99.90
38090;DHT22;23904;52.322;10.232;2023-09-08T07:47:51;20.40;99.90
38090;DHT22;23904;52.322;10.232;2023-09-08T07:50:27;20.50;99.90
38090;DHT22;23904;52.322;10.232;2023-09-08T07:52:55;20.70;99.90
38090;DHT22;23904;52.322;10.232;2023-09-08T07:55:22;20.80;99.90
38090;DHT22;23904;52.322;10.232;2023-09-08T07:57:49;21.00;99.90
38090;DHT22;23904;52.322;10.232;2023-09-08T08:00:16;21.20;99.90
38090;DHT22;23904;52.322;10.232;2023-09-08T08:02:45;21.30;99.90
38090;DHT22;23904;52.322;10.232;2023-09-08T08:05:12;21.50;99.90
38090;DHT22;23904;52.322;10.232;2023-09-08T08:07:42;21.80;99.90
38090;DHT22;23904;52.322;10.232;2023-09-08T08:10:09;22.20;99.90
38090;DHT22;23904;52.322;10.232;2023-09-08T08:12:39;22.70;99.90
38090;DHT22;23904;52.322;10.232;2023-09-08T08:15:06;23.00;99.90
38090;DHT22;23904;52.322;10.232;2023-09-08T08:17:32;23.70;99.90
38090;DHT22;23904;52.322;10.232;2023-09-08T08:19:58;24.40;99.70
38090;DHT22;23904;52.322;10.232;2023-09-08T08:22:25;25.50;97.80
38090;DHT22;23904;52.322;10.232;2023-09-08T08:24:51;27.20;95.20
38090;DHT22;23904;52.322;10.232;2023-09-08T08:27:16;28.40;92.40
38090;DHT22;23904;52.322;10.232;2023-09-08T08:29:42;29.70;90.10
38090;DHT22;23904;52.322;10.232;2023-09-08T08:32:07;30.70;86.70
38090;DHT22;23904;52.322;10.232;2023-09-08T08:34:33;32.10;79.60
38090;DHT22;23904;52.322;10.232;2023-09-08T08:36:58;33.00;76.50
38090;DHT22;23904;52.322;10.232;2023-09-08T08:39:24;32.90;75.50
38090;DHT22;23904;52.322;10.232;2023-09-08T08:41:49;33.90;71.10
38090;DHT22;23904;52.322;10.232;2023-09-08T08:44:16;34.90;65.30
38090;DHT22;23904;52.322;10.232;2023-09-08T08:46:45;34.80;66.20
38090;DHT22;23904;52.322;10.232;2023-09-08T08:49:15;35.60;63.90
38090;DHT22;23904;52.322;10.232;2023-09-08T08:51:44;36.90;60.60
38090;DHT22;23904;52.322;10.232;2023-09-08T08:54:12;36.30;60.70
38090;DHT22;23904;52.322;10.232;2023-09-08T08:56:39;36.40;59.80
38090;DHT22;23904;52.322;10.232;2023-09-08T08:59:06;36.40;59.40
38090;DHT22;23904;52.322;10.232;2023-09-08T09:01:32;36.60;57.80
38090;DHT22;23904;52.322;10.232;2023-09-08T09:03:58;37.00;58.00
38090;DHT22;23904;52.322;10.232;2023-09-08T09:06:24;37.40;57.00
38090;DHT22;23904;52.322;10.232;2023-09-08T09:08:50;38.10;55.70
38090;DHT22;23904;52.322;10.232;2023-09-08T09:11:15;38.20;55.40
38090;DHT22;23904;52.322;10.232;2023-09-08T09:13:41;38.10;54.50
38090;DHT22;23904;52.322;10.232;2023-09-08T09:16:06;38.40;53.90
38090;DHT22;23904;52.322;10.232;2023-09-08T09:18:53;39.20;51.80
38090;DHT22;23904;52.322;10.232;2023-09-08T09:21:23;39.10;51.50
38090;DHT22;23904;52.322;10.232;2023-09-08T09:23:49;38.80;50.50
38090;DHT22;23904;52.322;10.232;2023-09-08T09:26:25;39.20;50.30
38090;DHT22;23904;52.322;10.232;2023-09-08T09:28:51;39.50;50.30
38090;DHT22;23904;52.322;10.232;2023-09-08T09:31:23;39.50;50.60
38090;DHT22;23904;52.322;10.232;2023-09-08T09:34:04;39.90;49.50
38090;DHT22;23904;52.322;10.232;2023-09-08T09:36:30;40.00;48.80
38090;DHT22;23904;52.322;10.232;2023-09-08T09:39:00;39.70;49.20
38090;DHT22;23904;52.322;10.232;2023-09-08T09:41:29;39.30;50.80
38090;DHT22;23904;52.322;10.232;2023-09-08T09:43:56;39.60;49.60
38090;DHT22;23904;52.322;10.232;2023-09-08T09:46:22;40.50;47.90
38090;DHT22;23904;52.322;10.232;2023-09-08T09:48:54;40.60;47.50
38090;DHT22;23904;52.322;10.232;2023-09-08T09:51:21;40.00;48.20
38090;DHT22;23904;52.322;10.232;2023-09-08T09:53:50;40.70;48.00
38090;DHT22;23904;52.322;10.232;2023-09-08T09:56:17;41.90;46.10
38090;DHT22;23904;52.322;10.232;2023-09-08T09:58:44;41.00;47.40
38090;DHT22;23904;52.322;10.232;2023-09-08T10:01:10;41.30;46.20
38090;DHT22;23904;52.322;10.232;2023-09-08T10:03:38;41.30;47.00
38090;DHT22;23904;52.322;10.232;2023-09-08T10:06:05;41.30;46.50
38090;DHT22;23904;52.322;10.232;2023-09-08T10:08:31;41.80;44.00
38090;DHT22;23904;52.322;10.232;2023-09-08T10:11:06;42.60;43.50
38090;DHT22;23904;52.322;10.232;2023-09-08T10:13:39;42.50;43.80
38090;DHT22;23904;52.322;10.232;2023-09-08T10:16:08;42.80;43.20
38090;DHT22;23904;52.322;10.232;2023-09-08T10:18:39;42.40;42.30
38090;DHT22;23904;52.322;10.232;2023-09-08T10:21:08;41.90;43.40
38090;DHT22;23904;52.322;10.232;2023-09-08T10:23:44;41.80;43.60
38090;DHT22;23904;52.322;10.232;2023-09-08T10:26:18;42.50;43.10
38090;DHT22;23904;52.322;10.232;2023-09-08T10:28:47;43.00;41.50
38090;DHT22;23904;52.322;10.232;2023-09-08T10:31:15;42.80;42.00
38090;DHT22;23904;52.322;10.232;2023-09-08T10:33:41;42.70;42.00
38090;DHT22;23904;52.322;10.232;2023-09-08T10:36:08;42.30;41.70
38090;DHT22;23904;52.322;10.232;2023-09-08T10:38:35;42.10;40.90
38090;DHT22;23904;52.322;10.232;2023-09-08T10:44:03;42.90;40.10
38090;DHT22;23904;52.322;10.232;2023-09-08T10:46:33;42.30;39.70
38090;DHT22;23904;52.322;10.232;2023-09-08T10:49:07;42.10;40.30
38090;DHT22;23904;52.322;10.232;2023-09-08T10:51:33;42.10;40.20
38090;DHT22;23904;52.322;10.232;2023-09-08T10:54:00;42.80;39.40
38090;DHT22;23904;52.322;10.232;2023-09-08T10:56:28;42.80;39.50
38090;DHT22;23904;52.322;10.232;2023-09-08T10:58:55;42.40;38.90
38090;DHT22;23904;52.322;10.232;2023-09-08T11:01:21;42.50;38.70
38090;DHT22;23904;52.322;10.232;2023-09-08T11:03:57;42.80;38.00
38090;DHT22;23904;52.322;10.232;2023-09-08T11:06:23;42.90;37.70
38090;DHT22;23904;52.322;10.232;2023-09-08T11:08:49;42.40;37.70
38090;DHT22;23904;52.322;10.232;2023-09-08T11:11:18;42.30;38.00
38090;DHT22;23904;52.322;10.232;2023-09-08T11:13:44;41.90;37.20
38090;DHT22;23904;52.322;10.232;2023-09-08T11:16:15;41.30;38.00
38090;DHT22;23904;52.322;10.232;2023-09-08T11:18:41;41.90;38.10
38090;DHT22;23904;52.322;10.232;2023-09-08T11:21:08;42.80;37.90
38090;DHT22;23904;52.322;10.232;2023-09-08T11:23:35;42.50;37.50
38090;DHT22;23904;52.322;10.232;2023-09-08T11:26:01;43.60;36.30
38090;DHT22;23904;52.322;10.232;2023-09-08T11:28:27;44.00;35.10
38090;DHT22;23904;52.322;10.232;2023-09-08T11:30:56;44.10;35.40
38090;DHT22;23904;52.322;10.232;2023-09-08T11:33:23;43.60;35.00
38090;DHT22;23904;52.322;10.232;2023-09-08T11:35:53;42.90;36.40
38090;DHT22;23904;52.322;10.232;2023-09-08T11:38:24;43.20;35.20
38090;DHT22;23904;52.322;10.232;2023-09-08T11:40:52;43.50;35.00
38090;DHT22;23904;52.322;10.232;2023-09-08T11:43:19;43.20;35.70
38090;DHT22;23904;52.322;10.232;2023-09-08T11:45:45;43.30;35.00
38090;DHT22;23904;52.322;10.232;2023-09-08T11:48:10;42.90;35.50
38090;DHT22;23904;52.322;10.232;2023-09-08T11:50:36;43.00;35.70
38090;DHT22;23904;52.322;10.232;2023-09-08T11:53:01;44.10;34.30
38090;DHT22;23904;52.322;10.232;2023-09-08T11:55:28;44.00;34.70
38090;DHT22;23904;52.322;10.232;2023-09-08T11:57:55;43.70;34.70
38090;DHT22;23904;52.322;10.232;2023-09-08T12:00:25;44.20;35.20
38090;DHT22;23904;52.322;10.232;2023-09-08T12:02:52;44.40;34.70
38090;DHT22;23904;52.322;10.232;2023-09-08T12:05:24;43.50;34.70
38090;DHT22;23904;52.322;10.232;2023-09-08T12:07:52;43.30;34.70
38090;DHT22;23904;52.322;10.232;2023-09-08T12:10:19;43.20;35.70
38090;DHT22;23904;52.322;10.232;2023-09-08T12:12:53;42.20;36.20
38090;DHT22;23904;52.322;10.232;2023-09-08T12:15:36;40.20;37.20
38090;DHT22;23904;52.322;10.232;2023-09-08T12:18:05;37.80;40.20
38090;DHT22;23904;52.322;10.232;2023-09-08T12:20:34;36.40;41.80
38090;DHT22;23904;52.322;10.232;2023-09-08T12:23:02;35.50;43.40
38090;DHT22;23904;52.322;10.232;2023-09-08T12:25:51;34.90;44.40
38090;DHT22;23904;52.322;10.232;2023-09-08T12:28:19;34.30;46.00
38090;DHT22;23904;52.322;10.232;2023-09-08T12:30:45;33.80;46.80
38090;DHT22;23904;52.322;10.232;2023-09-08T12:33:11;33.50;47.50
38090;DHT22;23904;52.322;10.232;2023-09-08T12:35:38;33.30;48.10
38090;DHT22;23904;52.322;10.232;2023-09-08T12:38:04;33.00;48.00
38090;DHT22;23904;52.322;10.232;2023-09-08T12:40:34;32.80;48.90
38090;DHT22;23904;52.322;10.232;2023-09-08T12:43:02;32.60;49.20
38090;DHT22;23904;52.322;10.232;2023-09-08T12:45:28;32.40;49.90
38090;DHT22;23904;52.322;10.232;2023-09-08T12:47:57;32.10;50.30
38090;DHT22;23904;52.322;10.232;2023-09-08T12:50:28;32.10;49.30
38090;DHT22;23904;52.322;10.232;2023-09-08T12:52:53;32.00;49.30
38090;DHT22;23904;52.322;10.232;2023-09-08T12:55:19;31.80;49.40
38090;DHT22;23904;52.322;10.232;2023-09-08T12:57:45;31.70;50.20
38090;DHT22;23904;52.322;10.232;2023-09-08T13:00:12;31.60;50.40
38090;DHT22;23904;52.322;10.232;2023-09-08T13:02:41;31.60;50.50
38090;DHT22;23904;52.322;10.232;2023-09-08T13:05:09;31.50;50.00
38090;DHT22;23904;52.322;10.232;2023-09-08T13:07:35;31.30;51.00
38090;DHT22;23904;52.322;10.232;2023-09-08T13:10:00;31.50;50.60
38090;DHT22;23904;52.322;10.232;2023-09-08T13:12:26;31.60;51.90
38090;DHT22;23904;52.322;10.232;2023-09-08T13:14:52;31.60;52.20
38090;DHT22;23904;52.322;10.232;2023-09-08T13:17:17;31.50;52.90
38090;DHT22;23904;52.322;10.232;2023-09-08T13:19:44;31.60;51.90
38090;DHT22;23904;52.322;10.232;2023-09-08T13:22:11;31.50;52.50
38090;DHT22;23904;52.322;10.232;2023-09-08T13:24:36;31.40;52.00
38090;DHT22;23904;52.322;10.232;2023-09-08T13:27:03;31.30;51.70
38090;DHT22;23904;52.322;10.232;2023-09-08T13:29:29;31.20;52.00
38090;DHT22;23904;52.322;10.232;2023-09-08T13:31:55;31.10;53.30
38090;DHT22;23904;52.322;10.232;2023-09-08T13:34:27;31.10;53.60
38090;DHT22;23904;52.322;10.232;2023-09-08T13:36:53;31.00;54.40
38090;DHT22;23904;52.322;10.232;2023-09-08T13:39:18;31.10;53.10
38090;DHT22;23904;52.322;10.232;2023-09-08T13:41:51;31.10;53.10
38090;DHT22;23904;52.322;10.232;2023-09-08T13:44:23;31.10;53.30
38090;DHT22;23904;52.322;10.232;2023-09-08T13:46:53;31.10;53.80
38090;DHT22;23904;52.322;10.232;2023-09-08T13:49:19;31.10;54.20
38090;DHT22;23904;52.322;10.232;2023-09-08T13:51:45;31.00;54.30
38090;DHT22;23904;52.322;10.232;2023-09-08T13:54:12;31.00;54.20
38090;DHT22;23904;52.322;10.232;2023-09-08T13:56:39;31.10;54.50
38090;DHT22;23904;52.322;10.232;2023-09-08T13:59:06;31.00;55.00
38090;DHT22;23904;52.322;10.232;2023-09-08T14:01:33;31.00;54.30
38090;DHT22;23904;52.322;10.232;2023-09-08T14:03:59;31.10;54.40
38090;DHT22;23904;52.322;10.232;2023-09-08T14:06:26;31.10;53.90
38090;DHT22;23904;52.322;10.232;2023-09-08T14:08:53;31.00;54.20
38090;DHT22;23904;52.322;10.232;2023-09-08T14:11:19;31.00;54.30
38090;DHT22;23904;52.322;10.232;2023-09-08T14:13:44;30.80;54.60
38090;DHT22;23904;52.322;10.232;2023-09-08T14:16:13;31.00;54.60
38090;DHT22;23904;52.322;10.232;2023-09-08T14:18:39;31.00;54.30
38090;DHT22;23904;52.322;10.232;2023-09-08T14:21:08;31.00;54.70
38090;DHT22;23904;52.322;10.232;2023-09-08T14:23:34;31.10;54.50
38090;DHT22;23904;52.322;10.232;2023-09-08T14:26:00;31.30;54.50
38090;DHT22;23904;52.322;10.232;2023-09-08T14:28:26;31.30;54.30
38090;DHT22;23904;52.322;10.232;2023-09-08T14:30:54;31.40;54.10
38090;DHT22;23904;52.322;10.232;2023-09-08T14:33:20;31.30;54.60
38090;DHT22;23904;52.322;10.232;2023-09-08T14:35:46;31.50;54.20
38090;DHT22;23904;52.322;10.232;2023-09-08T14:38:17;31.50;53.80
38090;DHT22;23904;52.322;10.232;2023-09-08T14:40:43;31.50;54.30
38090;DHT22;23904;52.322;10.232;2023-09-08T14:43:09;31.60;54.50
38090;DHT22;23904;52.322;10.232;2023-09-08T14:45:35;31.70;54.40
38090;DHT22;23904;52.322;10.232;2023-09-08T14:48:00;31.60;54.30
38090;DHT22;23904;52.322;10.232;2023-09-08T14:50:26;31.60;54.20
38090;DHT22;23904;52.322;10.232;2023-09-08T14:52:51;31.70;53.60
38090;DHT22;23904;52.322;10.232;2023-09-08T14:55:17;31.60;53.90
38090;DHT22;23904;52.322;10.232;2023-09-08T14:57:42;31.50;53.90
38090;DHT22;23904;52.322;10.232;2023-09-08T15:00:08;31.50;53.80
38090;DHT22;23904;52.322;10.232;2023-09-08T15:02:35;31.60;54.00
38090;DHT22;23904;52.322;10.232;2023-09-08T15:05:00;31.60;53.20
38090;DHT22;23904;52.322;10.232;2023-09-08T15:07:26;31.50;52.80
38090;DHT22;23904;52.322;10.232;2023-09-08T15:09:52;31.40;53.50
38090;DHT22;23904;52.322;10.232;2023-09-08T15:12:17;31.40;53.00
38090;DHT22;23904;52.322;10.232;2023-09-08T15:14:43;31.30;53.80
38090;DHT22;23904;52.322;10.232;2023-09-08T15:17:11;31.30;53.80
38090;DHT22;23904;52.322;10.232;2023-09-08T15:19:38;31.10;53.90